Time;durP1;ratioP1;P1;durP2;ratioP2;P2;SDS_P1;SDS_P2;PMS_P1;PMS_P2;Temp;Humidity;BMP_temperature;BMP_pressure;BME280_temperature;BME280_humidity;BME280_pressure;Samples;Min_cycle;Max_cycle;Signal;HPM_P1;HPM_P2
2023/10/29 00:00:47;;;;;;;1.85;0.90;;;12.70;92.40;;;;;;5031335;28;20113;-28
2023/10/29 00:03:12;;;;;;;2.95;0.75;;;12.70;92.40;;;;;;5031617;28;20029;-27
2023/10/29 00:05:38;;;;;;;2.08;1.00;;;12.80;92.50;;;;;;5031432;28;20025;-30
2023/10/29 00:08:04;;;;;;;1.50;0.70;;;12.80;92.50;;;;;;5031278;28;20026;-29
2023/10/29 00:10:29;;;;;;;0.80;0.60;;;12.80;92.40;;;;;;5031379;28;20386;-29
2023/10/29 00:12:55;;;;;;;0.95;0.80;;;12.80;92.30;;;;;;5031139;28;20048;-31
2023/10/29 00:15:21;;;;;;;2.80;0.77;;;12.80;92.30;;;;;;5031607;28;20068;-30
2023/10/29 00:17:46;;;;;;;3.03;1.02;;;12.80;92.20;;;;;;5031132;28;20354;-28
2023/10/29 00:20:13;;;;;;;1.08;0.75;;;12.90;92.20;;;;;;5031427;28;20373;-30
2023/10/29 00:22:38;;;;;;;1.20;0.65;;;12.90;92.20;;;;;;5030978;28;20104;-29
2023/10/29 00:25:04;;;;;;;0.82;0.60;;;12.90;92.20;;;;;;5031307;28;20238;-33
2023/10/29 00:27:30;;;;;;;0.95;0.82;;;12.90;92.10;;;;;;5031565;28;20017;-30
2023/10/29 00:29:55;;;;;;;0.98;0.93;;;13.00;92.20;;;;;;5031061;28;20045;-33
2023/10/29 00:32:21;;;;;;;1.13;0.82;;;13.00;92.20;;;;;;5031130;28;20079;-31
2023/10/29 00:34:47;;;;;;;1.30;0.73;;;13.00;92.20;;;;;;5031498;28;20064;-30
2023/10/29 00:37:13;;;;;;;0.75;0.60;;;13.00;92.20;;;;;;5031093;28;20056;-28
2023/10/29 00:39:40;;;;;;;1.30;0.80;;;13.00;92.20;;;;;;5031372;28;20081;-28
2023/10/29 00:42:06;;;;;;;0.85;0.60;;;13.00;92.30;;;;;;5031097;28;20381;-31
2023/10/29 00:44:32;;;;;;;1.17;0.85;;;13.10;92.30;;;;;;5032123;28;20031;-31
2023/10/29 00:46:57;;;;;;;2.15;0.90;;;13.00;92.10;;;;;;5034480;28;20107;-29
2023/10/29 00:49:24;;;;;;;1.75;0.80;;;13.10;92.20;;;;;;5035196;28;20021;-31
2023/10/29 00:51:50;;;;;;;1.20;0.80;;;13.00;92.10;;;;;;5034456;28;20416;-32
2023/10/29 00:54:16;;;;;;;2.20;0.70;;;13.00;92.10;;;;;;5034728;28;20022;-28
2023/10/29 00:56:42;;;;;;;1.55;0.70;;;13.00;92.10;;;;;;5034839;28;20025;-29
2023/10/29 00:59:11;;;;;;;0.75;0.75;;;13.00;92.10;;;;;;5034550;28;20021;-28
2023/10/29 01:01:37;;;;;;;1.33;0.70;;;13.00;92.10;;;;;;5034589;28;20465;-29
2023/10/29 01:04:04;;;;;;;1.05;0.80;;;13.00;92.20;;;;;;5034552;28;20044;-27
2023/10/29 01:06:31;;;;;;;1.38;0.60;;;13.10;92.20;;;;;;5034448;28;20079;-30
2023/10/29 01:08:56;;;;;;;1.52;0.68;;;13.10;92.20;;;;;;5034683;28;20456;-28
2023/10/29 01:11:22;;;;;;;1.48;0.75;;;13.10;92.20;;;;;;5034232;28;20022;-30
2023/10/29 01:13:48;;;;;;;0.75;0.60;;;13.10;92.20;;;;;;5034531;28;20041;-33
2023/10/29 01:16:13;;;;;;;0.80;0.60;;;13.10;92.30;;;;;;5034218;28;20493;-28
2023/10/29 01:18:39;;;;;;;0.85;0.70;;;13.10;92.20;;;;;;5034265;28;20743;-31
2023/10/29 01:21:04;;;;;;;1.42;0.90;;;13.10;92.20;;;;;;5034089;28;20018;-32
2023/10/29 01:23:30;;;;;;;0.60;0.60;;;13.10;92.10;;;;;;5034188;28;20036;-27
2023/10/29 01:25:57;;;;;;;1.30;0.80;;;13.10;92.10;;;;;;5034271;28;20097;-29
2023/10/29 01:28:24;;;;;;;1.20;0.75;;;13.10;92.10;;;;;;5034278;28;20030;-27
2023/10/29 01:30:49;;;;;;;3.28;0.73;;;13.10;92.20;;;;;;5033713;28;20121;-28
2023/10/29 01:33:15;;;;;;;2.13;0.80;;;13.10;92.20;;;;;;5033782;28;20488;-29
2023/10/29 01:35:40;;;;;;;0.70;0.60;;;13.10;92.10;;;;;;5033739;28;20061;-27
2023/10/29 01:38:06;;;;;;;0.60;0.60;;;13.20;92.20;;;;;;5033862;28;20025;-28
2023/10/29 01:40:31;;;;;;;1.63;0.80;;;13.20;92.20;;;;;;5033654;28;20488;-28
2023/10/29 01:42:57;;;;;;;3.88;1.00;;;13.20;92.20;;;;;;5033650;28;20571;-48
2023/10/29 01:45:23;;;;;;;3.45;1.00;;;13.20;92.20;;;;;;5033746;28;20147;-27
2023/10/29 01:47:48;;;;;;;0.98;0.80;;;13.20;92.20;;;;;;5033664;28;20159;-27
2023/10/29 01:50:15;;;;;;;0.50;0.50;;;13.20;92.20;;;;;;5033662;28;20480;-27
2023/10/29 01:52:40;;;;;;;3.90;0.93;;;13.20;92.20;;;;;;5033718;28;20402;-29
2023/10/29 01:55:06;;;;;;;1.60;0.52;;;13.20;92.20;;;;;;5033620;28;20022;-28
2023/10/29 01:57:36;;;;;;;0.70;0.70;;;13.20;92.20;;;;;;5033111;28;20466;-28
2023/10/29 02:00:06;;;;;;;2.25;0.60;;;13.20;92.20;;;;;;5033372;28;20083;-31
2023/10/29 02:02:34;;;;;;;1.55;0.70;;;13.20;92.20;;;;;;5031413;28;20068;-39
2023/10/29 02:05:03;;;;;;;0.70;0.70;;;13.20;92.10;;;;;;5033166;28;20022;-30
2023/10/29 02:07:29;;;;;;;1.75;0.68;;;13.30;92.20;;;;;;5033055;28;20110;-28
2023/10/29 02:09:55;;;;;;;1.27;0.70;;;13.30;92.10;;;;;;5033616;28;20114;-27
2023/10/29 02:12:20;;;;;;;1.30;0.60;;;13.30;92.10;;;;;;5033216;28;20029;-28
2023/10/29 02:14:46;;;;;;;0.70;0.70;;;13.20;92.10;;;;;;5031885;28;20093;-28
2023/10/29 02:17:11;;;;;;;2.03;0.70;;;13.20;92.10;;;;;;5033380;28;20096;-30
2023/10/29 02:19:37;;;;;;;0.82;0.63;;;13.20;92.20;;;;;;5033319;28;20053;-27
2023/10/29 02:22:02;;;;;;;1.10;0.60;;;13.30;92.20;;;;;;5032681;28;20029;-28
2023/10/29 02:24:28;;;;;;;1.70;0.70;;;13.30;92.10;;;;;;5033052;28;20537;-29
2023/10/29 02:26:53;;;;;;;2.25;0.90;;;13.40;92.10;;;;;;5032933;28;20057;-32
2023/10/29 02:29:19;;;;;;;1.63;0.70;;;13.40;92.10;;;;;;5032636;28;20112;-44
2023/10/29 02:31:44;;;;;;;2.35;0.77;;;13.40;92.10;;;;;;5032616;28;20033;-30
2023/10/29 02:34:11;;;;;;;2.08;0.88;;;13.50;92.10;;;;;;5032665;28;20029;-35
2023/10/29 02:36:37;;;;;;;1.45;0.70;;;13.50;92.10;;;;;;5033061;28;20025;-31
2023/10/29 02:39:02;;;;;;;1.08;0.70;;;13.60;92.00;;;;;;5032860;28;20028;-31
2023/10/29 02:41:28;;;;;;;1.73;0.80;;;13.60;92.00;;;;;;5032575;28;20056;-31
2023/10/29 02:43:55;;;;;;;3.30;0.73;;;13.60;92.00;;;;;;5032476;28;20143;-33
2023/10/29 02:46:20;;;;;;;1.73;0.70;;;13.60;91.90;;;;;;5032248;28;20036;-29
2023/10/29 02:48:46;;;;;;;1.48;0.70;;;13.60;91.90;;;;;;5032746;28;20025;-31
2023/10/29 02:51:12;;;;;;;1.77;0.65;;;13.70;91.90;;;;;;5032217;28;20025;-36
2023/10/29 02:53:38;;;;;;;2.53;0.75;;;13.70;91.90;;;;;;5032426;28;20033;-31
2023/10/29 02:56:04;;;;;;;2.72;0.63;;;13.70;91.90;;;;;;5032279;28;20024;-29
2023/10/29 02:58:30;;;;;;;1.73;0.90;;;13.70;91.80;;;;;;5032357;28;20025;-32
2023/10/29 03:01:08;;;;;;;1.13;0.60;;;13.70;91.80;;;;;;5031738;28;20075;-30
2023/10/29 03:03:35;;;;;;;0.95;0.73;;;13.70;92.10;;;;;;5031683;28;20037;-27
2023/10/29 03:06:05;;;;;;;0.77;0.50;;;13.70;91.80;;;;;;5032007;28;20030;-27
2023/10/29 03:08:30;;;;;;;4.93;0.80;;;13.80;91.70;;;;;;5031444;28;20044;-28
2023/10/29 03:10:57;;;;;;;1.48;0.57;;;13.80;91.70;;;;;;5030713;28;20036;-28
2023/10/29 03:13:22;;;;;;;0.90;0.70;;;13.80;91.70;;;;;;5032288;28;20061;-29
2023/10/29 03:15:48;;;;;;;2.13;0.60;;;13.80;91.60;;;;;;5031848;28;20059;-29
2023/10/29 03:18:14;;;;;;;0.82;0.70;;;13.80;91.50;;;;;;5031803;28;20028;-35
2023/10/29 03:20:40;;;;;;;1.30;0.60;;;13.80;91.50;;;;;;5031830;28;20385;-29
2023/10/29 03:23:06;;;;;;;1.60;0.60;;;13.70;91.40;;;;;;5031705;28;20105;-31
2023/10/29 03:25:31;;;;;;;0.93;0.70;;;13.70;91.40;;;;;;5031679;28;20104;-29
2023/10/29 03:27:57;;;;;;;1.55;0.52;;;13.70;91.40;;;;;;5032365;28;20028;-30
2023/10/29 03:30:22;;;;;;;1.83;0.65;;;13.80;91.40;;;;;;5031657;28;20029;-28
2023/10/29 03:32:48;;;;;;;1.15;0.70;;;13.80;91.30;;;;;;5031639;28;20025;-28
2023/10/29 03:35:14;;;;;;;0.93;0.45;;;13.80;91.20;;;;;;5031732;28;20056;-29
2023/10/29 03:37:40;;;;;;;4.90;0.90;;;13.80;91.10;;;;;;5031639;28;20017;-28
2023/10/29 03:40:06;;;;;;;1.65;0.75;;;13.80;91.10;;;;;;5031688;28;20021;-28
2023/10/29 03:42:33;;;;;;;1.80;0.60;;;13.80;91.10;;;;;;5031667;28;20042;-28
2023/10/29 03:44:58;;;;;;;1.50;0.80;;;13.70;91.10;;;;;;5031713;28;20030;-30
2023/10/29 03:47:24;;;;;;;0.93;0.40;;;13.70;91.20;;;;;;5031701;28;20026;-28
2023/10/29 03:49:49;;;;;;;1.75;0.70;;;13.80;91.30;;;;;;5031675;28;20025;-30
2023/10/29 03:52:15;;;;;;;0.80;0.52;;;13.80;91.10;;;;;;5031526;28;20040;-30
2023/10/29 03:54:41;;;;;;;1.25;0.52;;;13.80;91.10;;;;;;5031586;28;20462;-31
2023/10/29 03:57:07;;;;;;;1.08;0.50;;;13.80;91.10;;;;;;5031492;28;20032;-32
2023/10/29 03:59:34;;;;;;;1.77;0.70;;;13.80;91.10;;;;;;5031857;28;20095;-28
2023/10/29 04:01:59;;;;;;;1.83;0.52;;;13.90;91.10;;;;;;5031558;28;20026;-31
2023/10/29 04:04:25;;;;;;;0.90;0.70;;;13.90;91.10;;;;;;5031473;28;20083;-28
2023/10/29 04:06:51;;;;;;;2.92;0.80;;;13.90;91.00;;;;;;5031649;28;20388;-31
2023/10/29 04:09:16;;;;;;;1.35;0.60;;;13.80;91.30;;;;;;5031421;28;20022;-28
2023/10/29 04:11:42;;;;;;;0.95;0.55;;;13.80;91.00;;;;;;5031285;28;20421;-29
2023/10/29 04:14:08;;;;;;;1.55;0.73;;;13.80;91.00;;;;;;5031527;28;20080;-27
2023/10/29 04:16:33;;;;;;;0.93;0.40;;;13.70;91.10;;;;;;5031277;28;20533;-28
2023/10/29 04:18:59;;;;;;;0.65;0.60;;;13.70;91.10;;;;;;5031464;28;20053;-30
2023/10/29 04:21:24;;;;;;;1.40;0.50;;;13.70;91.10;;;;;;5034009;28;20367;-28
2023/10/29 04:23:50;;;;;;;2.28;0.70;;;13.70;91.10;;;;;;5035122;28;20025;-31
2023/10/29 04:26:16;;;;;;;1.52;0.50;;;13.60;91.00;;;;;;5035482;28;20025;-29
2023/10/29 04:28:41;;;;;;;2.28;0.40;;;13.60;91.00;;;;;;5033627;28;20025;-34
2023/10/29 04:31:07;;;;;;;0.95;0.50;;;13.60;91.00;;;;;;5035078;28;20037;-28
2023/10/29 04:33:32;;;;;;;1.98;0.60;;;13.60;91.00;;;;;;5035021;28;20018;-29
2023/10/29 04:35:58;;;;;;;0.40;0.40;;;13.60;91.00;;;;;;5035357;28;20033;-30
2023/10/29 04:38:24;;;;;;;1.58;0.52;;;13.50;91.00;;;;;;5035382;28;20063;-30
2023/10/29 04:40:50;;;;;;;1.55;0.70;;;13.60;91.10;;;;;;5034762;28;20033;-32
2023/10/29 04:43:16;;;;;;;1.73;0.50;;;13.50;91.10;;;;;;5035052;28;20029;-28
2023/10/29 04:45:41;;;;;;;1.67;0.40;;;13.50;91.10;;;;;;5034704;28;20094;-29
2023/10/29 04:48:07;;;;;;;1.08;0.60;;;13.50;91.10;;;;;;5034720;28;20059;-29
2023/10/29 04:50:32;;;;;;;1.20;0.40;;;13.50;91.10;;;;;;5034973;28;20067;-34
2023/10/29 04:53:00;;;;;;;0.60;0.60;;;13.60;91.10;;;;;;5034816;28;20014;-30
2023/10/29 04:55:27;;;;;;;0.80;0.50;;;13.60;91.00;;;;;;5035000;28;20018;-28
2023/10/29 04:57:52;;;;;;;1.77;0.50;;;13.70;91.00;;;;;;5034686;28;20056;-29
2023/10/29 05:00:18;;;;;;;1.33;0.65;;;13.70;91.00;;;;;;5034725;28;20049;-29
2023/10/29 05:02:43;;;;;;;1.75;0.75;;;13.70;90.90;;;;;;5034384;28;20037;-28
2023/10/29 05:05:10;;;;;;;2.60;0.60;;;13.70;90.90;;;;;;5034527;28;20083;-28
2023/10/29 05:07:36;;;;;;;1.88;0.63;;;13.70;90.90;;;;;;5034736;28;20036;-28
2023/10/29 05:10:03;;;;;;;1.00;0.55;;;13.70;91.20;;;;;;5034202;28;20449;-29
2023/10/29 05:12:28;;;;;;;1.52;0.50;;;13.70;91.00;;;;;;5034022;28;20109;-28
2023/10/29 05:14:54;;;;;;;0.93;0.52;;;13.70;91.10;;;;;;5034293;28;20100;-31
2023/10/29 05:17:19;;;;;;;1.00;0.57;;;13.70;91.10;;;;;;5033849;28;20484;-31
2023/10/29 05:19:45;;;;;;;1.35;0.60;;;13.70;91.10;;;;;;5033891;28;20084;-30
2023/10/29 05:22:11;;;;;;;1.67;0.57;;;13.70;91.10;;;;;;5033977;28;20029;-29
2023/10/29 05:24:36;;;;;;;0.50;0.40;;;13.70;91.20;;;;;;5034144;28;20040;-28
2023/10/29 05:27:03;;;;;;;1.23;0.60;;;13.70;91.20;;;;;;5034281;28;20571;-30
2023/10/29 05:29:29;;;;;;;2.00;0.73;;;13.60;91.20;;;;;;5034154;28;20422;-29
2023/10/29 05:31:54;;;;;;;1.27;0.60;;;13.60;91.30;;;;;;5032808;28;20037;-29
2023/10/29 05:34:20;;;;;;;1.73;0.60;;;13.50;91.30;;;;;;5033861;28;20022;-30
2023/10/29 05:36:46;;;;;;;0.73;0.70;;;13.50;91.30;;;;;;5032547;28;20048;-28
2023/10/29 05:39:11;;;;;;;2.28;0.60;;;13.50;91.40;;;;;;5033878;28;20363;-29
2023/10/29 05:41:37;;;;;;;2.95;0.60;;;13.50;91.40;;;;;;5033425;28;20391;-31
2023/10/29 05:44:03;;;;;;;3.53;0.75;;;13.40;91.40;;;;;;5033683;28;20037;-29
2023/10/29 05:46:29;;;;;;;0.80;0.52;;;13.40;91.40;;;;;;5033771;28;20124;-28
2023/10/29 05:48:54;;;;;;;1.30;0.80;;;13.40;91.40;;;;;;5033875;28;20029;-28
2023/10/29 05:51:20;;;;;;;1.85;0.65;;;13.40;91.40;;;;;;5033784;28;20025;-28
2023/10/29 05:53:49;;;;;;;3.15;0.70;;;13.40;91.40;;;;;;5033842;28;20470;-31
2023/10/29 05:56:14;;;;;;;2.10;0.60;;;13.40;91.40;;;;;;5033642;28;20374;-29
2023/10/29 05:58:40;;;;;;;1.60;0.60;;;13.40;91.40;;;;;;5033527;28;20036;-34
2023/10/29 06:01:06;;;;;;;3.58;0.70;;;13.40;91.40;;;;;;5033383;28;20580;-30
2023/10/29 06:03:33;;;;;;;0.68;0.60;;;13.40;91.30;;;;;;5033117;28;20104;-32
2023/10/29 06:05:59;;;;;;;2.05;0.60;;;13.40;91.20;;;;;;5031872;28;20125;-34
2023/10/29 06:08:25;;;;;;;2.90;0.93;;;13.40;91.20;;;;;;5033201;28;20075;-28
2023/10/29 06:10:51;;;;;;;2.17;0.93;;;13.40;91.10;;;;;;5033006;28;20038;-29
2023/10/29 06:13:16;;;;;;;2.33;0.82;;;13.30;91.00;;;;;;5032930;28;20036;-28
2023/10/29 06:15:42;;;;;;;2.42;0.80;;;13.30;90.80;;;;;;5031945;28;20060;-33
2023/10/29 06:18:07;;;;;;;4.07;0.63;;;13.20;90.80;;;;;;5033238;28;20432;-27
2023/10/29 06:20:33;;;;;;;2.38;0.52;;;13.30;90.80;;;;;;5032847;28;20033;-32
2023/10/29 06:22:59;;;;;;;1.15;0.50;;;13.20;90.70;;;;;;5033369;28;20017;-30
2023/10/29 06:25:24;;;;;;;2.40;0.63;;;13.20;90.70;;;;;;5032948;28;20036;-34
2023/10/29 06:27:50;;;;;;;1.92;0.60;;;13.20;90.70;;;;;;5032821;28;20071;-29
2023/10/29 06:30:19;;;;;;;2.95;0.52;;;13.20;90.60;;;;;;5032672;28;20063;-27
2023/10/29 06:32:45;;;;;;;2.22;0.60;;;13.30;90.50;;;;;;5032423;28;20029;-28
2023/10/29 06:35:12;;;;;;;1.67;0.63;;;13.30;90.40;;;;;;5032675;28;20057;-29
2023/10/29 06:37:37;;;;;;;2.55;0.52;;;13.20;90.40;;;;;;5032695;28;20040;-34
2023/10/29 06:40:03;;;;;;;4.25;0.60;;;13.20;90.40;;;;;;5032637;28;20032;-30
2023/10/29 06:42:28;;;;;;;0.90;0.40;;;13.20;90.70;;;;;;5030801;28;20036;-28
2023/10/29 06:44:54;;;;;;;3.80;0.65;;;13.10;90.40;;;;;;5032863;28;20025;-32
2023/10/29 06:47:20;;;;;;;2.85;0.85;;;13.10;90.40;;;;;;5032660;28;20033;-29
2023/10/29 06:49:45;;;;;;;3.25;0.47;;;13.10;90.40;;;;;;5032512;28;20501;-32
2023/10/29 06:52:11;;;;;;;3.45;0.40;;;13.10;90.40;;;;;;5032421;28;20426;-29
2023/10/29 06:54:36;;;;;;;2.17;0.50;;;13.10;90.40;;;;;;5032412;28;20021;-32
2023/10/29 06:57:04;;;;;;;1.60;0.43;;;13.10;90.40;;;;;;5032183;28;20013;-28
2023/10/29 06:59:30;;;;;;;1.33;0.60;;;13.10;90.40;;;;;;5032555;28;20021;-28
2023/10/29 07:01:58;;;;;;;1.63;0.77;;;13.10;90.40;;;;;;5032165;28;20056;-29
2023/10/29 07:04:24;;;;;;;2.85;0.70;;;13.10;90.50;;;;;;5032477;28;20104;-30
2023/10/29 07:06:49;;;;;;;2.55;0.75;;;13.10;90.30;;;;;;5032011;28;20065;-29
2023/10/29 07:09:15;;;;;;;5.05;0.73;;;13.00;90.30;;;;;;5032309;28;20021;-28
2023/10/29 07:11:42;;;;;;;3.00;0.80;;;13.00;90.20;;;;;;5031834;28;20025;-31
2023/10/29 07:14:08;;;;;;;3.83;0.90;;;13.00;90.30;;;;;;5032251;28;20385;-30
2023/10/29 07:16:34;;;;;;;3.22;0.70;;;13.00;90.30;;;;;;5031901;28;20026;-30
2023/10/29 07:18:59;;;;;;;3.17;1.25;;;13.00;90.30;;;;;;5031973;28;20032;-32
2023/10/29 07:21:25;;;;;;;3.65;0.80;;;13.00;90.30;;;;;;5032236;28;20029;-31
2023/10/29 07:23:50;;;;;;;2.95;0.85;;;13.10;90.30;;;;;;5031843;28;20036;-29
2023/10/29 07:26:16;;;;;;;1.33;0.55;;;13.10;90.30;;;;;;5031767;28;20040;-33
2023/10/29 07:28:41;;;;;;;3.25;1.10;;;13.20;90.30;;;;;;5031629;28;20470;-31
2023/10/29 07:31:07;;;;;;;3.67;1.20;;;13.30;90.20;;;;;;5031949;28;20408;-29
2023/10/29 07:33:32;;;;;;;4.50;0.90;;;13.30;90.10;;;;;;5031778;28;20024;-29
2023/10/29 07:36:02;;;;;;;6.47;1.00;;;13.40;90.00;;;;;;5031685;28;20093;-31
2023/10/29 07:38:28;;;;;;;5.65;1.10;;;13.50;90.00;;;;;;5031988;28;20525;-30
2023/10/29 07:40:54;;;;;;;3.60;0.82;;;13.50;90.00;;;;;;5031803;28;20056;-29
2023/10/29 07:43:19;;;;;;;6.45;1.30;;;13.50;90.00;;;;;;5031681;28;20052;-29
2023/10/29 07:45:47;;;;;;;3.92;0.90;;;13.50;90.00;;;;;;5031476;28;20022;-32
2023/10/29 07:48:13;;;;;;;4.35;1.02;;;13.40;90.00;;;;;;5030183;28;20022;-29
2023/10/29 07:50:39;;;;;;;4.57;1.10;;;13.40;89.90;;;;;;5031399;28;20026;-32
2023/10/29 07:53:04;;;;;;;4.15;1.05;;;13.40;89.80;;;;;;5031508;28;20014;-30
2023/10/29 07:55:30;;;;;;;7.03;1.05;;;13.40;89.70;;;;;;5031173;28;20018;-29
2023/10/29 07:57:56;;;;;;;4.18;0.90;;;13.50;89.70;;;;;;5031594;28;20025;-32
2023/10/29 08:00:21;;;;;;;3.55;0.90;;;13.50;89.60;;;;;;5031787;28;20021;-29
2023/10/29 08:02:47;;;;;;;3.92;1.30;;;13.50;89.60;;;;;;5031308;28;20041;-37
2023/10/29 08:05:14;;;;;;;5.88;1.20;;;13.50;89.50;;;;;;5031517;28;20022;-34
2023/10/29 08:07:40;;;;;;;3.60;1.10;;;13.50;89.30;;;;;;5031472;28;20037;-29
2023/10/29 08:10:06;;;;;;;5.25;1.17;;;13.50;89.30;;;;;;5031444;28;20539;-29
2023/10/29 08:12:32;;;;;;;3.20;0.95;;;13.40;89.10;;;;;;5031521;28;20034;-31
2023/10/29 08:14:57;;;;;;;1.63;0.80;;;13.50;89.20;;;;;;5031566;28;20359;-32
2023/10/29 08:17:23;;;;;;;2.05;1.05;;;13.50;89.10;;;;;;5031294;28;20030;-31
2023/10/29 08:19:49;;;;;;;4.68;1.13;;;13.50;89.00;;;;;;5031345;28;20026;-30
2023/10/29 08:22:14;;;;;;;6.75;1.15;;;13.50;88.90;;;;;;5031158;28;20021;-31
2023/10/29 08:24:40;;;;;;;3.53;1.10;;;13.60;88.90;;;;;;5031354;28;20029;-32
2023/10/29 08:27:07;;;;;;;2.80;0.98;;;13.50;88.80;;;;;;5031319;28;20029;-30
2023/10/29 08:29:37;;;;;;;6.68;1.20;;;13.60;88.90;;;;;;5030976;28;20072;-31
2023/10/29 08:32:02;;;;;;;3.65;1.00;;;13.60;88.90;;;;;;5031050;28;20044;-32
2023/10/29 08:34:29;;;;;;;3.08;0.90;;;13.60;88.80;;;;;;5031355;28;20529;-33
2023/10/29 08:36:55;;;;;;;4.53;1.20;;;13.60;88.80;;;;;;5031136;28;20033;-33
2023/10/29 08:39:21;;;;;;;7.00;1.38;;;13.70;89.20;;;;;;5031106;28;20013;-30
2023/10/29 08:41:48;;;;;;;2.80;0.93;;;13.80;88.30;;;;;;5031139;28;20135;-29
2023/10/29 08:44:13;;;;;;;6.57;1.20;;;13.90;88.20;;;;;;5031048;28;20022;-32
2023/10/29 08:46:41;;;;;;;3.42;1.30;;;13.90;88.00;;;;;;5031019;28;20041;-34
2023/10/29 08:49:07;;;;;;;6.28;1.35;;;14.00;87.70;;;;;;5031108;28;20029;-32
2023/10/29 08:51:32;;;;;;;5.32;1.85;;;14.20;87.30;;;;;;5031117;28;20029;-32
2023/10/29 08:53:59;;;;;;;4.60;1.40;;;14.20;86.30;;;;;;5030998;28;20048;-30
2023/10/29 08:56:25;;;;;;;5.95;1.90;;;14.20;86.30;;;;;;5029658;28;20022;-30
2023/10/29 08:58:50;;;;;;;4.13;1.33;;;14.20;86.10;;;;;;5030983;28;20032;-31
2023/10/29 09:01:17;;;;;;;3.97;1.33;;;14.30;86.20;;;;;;5029592;28;20026;-31
2023/10/29 09:03:42;;;;;;;7.28;1.17;;;14.30;86.20;;;;;;5030746;28;20386;-29
2023/10/29 09:06:08;;;;;;;8.10;1.33;;;14.40;86.10;;;;;;5030862;28;20025;-28
2023/10/29 09:08:34;;;;;;;8.20;1.77;;;14.40;85.80;;;;;;5034285;28;20059;-30
2023/10/29 09:11:00;;;;;;;4.80;1.27;;;14.50;85.90;;;;;;5034212;28;20030;-29
2023/10/29 09:13:27;;;;;;;6.07;1.50;;;14.50;85.70;;;;;;5034387;28;20021;-29
2023/10/29 09:15:52;;;;;;;5.50;1.60;;;14.50;84.40;;;;;;5034174;28;20469;-27
2023/10/29 09:18:19;;;;;;;7.70;1.40;;;14.60;84.00;;;;;;5034106;28;20017;-28
2023/10/29 09:20:48;;;;;;;5.65;1.40;;;14.60;83.50;;;;;;5034323;28;20018;-34
2023/10/29 09:23:14;;;;;;;5.10;1.40;;;14.60;83.80;;;;;;5033942;28;20087;-29
2023/10/29 09:25:44;;;;;;;4.50;1.30;;;14.60;83.70;;;;;;5034090;28;20414;-30
2023/10/29 09:28:11;;;;;;;5.65;1.33;;;14.60;83.90;;;;;;5034131;28;20544;-33
2023/10/29 09:30:37;;;;;;;8.93;2.22;;;14.60;83.90;;;;;;5033656;28;20061;-30
2023/10/29 09:33:03;;;;;;;6.68;1.52;;;14.60;83.20;;;;;;5033841;28;20033;-36
2023/10/29 09:35:28;;;;;;;4.82;1.50;;;14.60;82.50;;;;;;5034077;28;20021;-29
2023/10/29 09:37:54;;;;;;;6.18;1.13;;;14.60;82.60;;;;;;5033951;28;20026;-33
2023/10/29 09:40:19;;;;;;;3.90;1.10;;;14.60;82.60;;;;;;5033990;28;20143;-30
2023/10/29 09:42:58;;;;;;;4.32;1.10;;;14.70;82.60;;;;;;5033618;28;20104;-36
2023/10/29 09:45:26;;;;;;;6.13;1.35;;;14.80;82.20;;;;;;5033506;28;20029;-32
2023/10/29 09:47:56;;;;;;;3.60;1.05;;;14.90;82.10;;;;;;5032357;28;20048;-37
2023/10/29 09:50:22;;;;;;;2.85;1.20;;;15.00;81.90;;;;;;5033692;28;20117;-33
2023/10/29 09:52:52;;;;;;;5.43;1.30;;;15.10;81.80;;;;;;5033398;28;20168;-32
2023/10/29 09:55:21;;;;;;;5.18;1.40;;;15.10;80.90;;;;;;5033545;28;20025;-30
2023/10/29 09:57:47;;;;;;;2.38;0.90;;;15.10;80.70;;;;;;5033670;28;20044;-32
2023/10/29 10:00:15;;;;;;;3.78;0.90;;;15.00;80.90;;;;;;5033529;28;20075;-34
2023/10/29 10:02:51;;;;;;;6.32;1.20;;;15.00;80.80;;;;;;5033249;28;20037;-37
2023/10/29 10:05:21;;;;;;;4.45;1.13;;;15.00;80.50;;;;;;5033470;28;20052;-33
2023/10/29 10:07:47;;;;;;;6.20;1.40;;;15.00;80.60;;;;;;5033842;28;20076;-33
2023/10/29 10:10:14;;;;;;;4.65;1.10;;;15.10;80.00;;;;;;5034410;28;20048;-35
2023/10/29 10:12:47;;;;;;;3.42;1.13;;;15.30;80.00;;;;;;5032648;28;20028;-31
2023/10/29 10:15:16;;;;;;;4.22;1.10;;;15.40;79.30;;;;;;5033509;28;20022;-31
2023/10/29 10:17:56;;;;;;;5.40;1.10;;;15.40;78.90;;;;;;5032562;28;20508;-34
2023/10/29 10:20:22;;;;;;;4.55;1.13;;;15.50;78.80;;;;;;5032905;28;20030;-34
2023/10/29 10:22:56;;;;;;;3.13;1.00;;;15.50;78.90;;;;;;5032730;28;20041;-32
2023/10/29 10:25:23;;;;;;;;;;;15.40;78.00;;;;;;5033296;28;20029;-30
2023/10/29 10:27:51;;;;;;;4.45;1.10;;;15.40;77.30;;;;;;5032962;28;19905;-30
2023/10/29 10:30:28;;;;;;;5.68;1.40;;;15.30;78.00;;;;;;5032535;28;20052;-36
2023/10/29 10:33:11;;;;;;;3.50;1.27;;;15.20;77.70;;;;;;5032661;28;20030;-33
2023/10/29 10:35:50;;;;;;;6.68;1.55;;;15.20;78.30;;;;;;5032755;28;20021;-32
2023/10/29 10:38:16;;;;;;;6.63;1.10;;;15.10;77.50;;;;;;5032828;28;20045;-29
2023/10/29 10:40:42;;;;;;;6.47;1.20;;;15.10;77.50;;;;;;5032313;28;20017;-32
2023/10/29 10:43:08;;;;;;;5.43;1.17;;;15.10;77.00;;;;;;5032625;28;20022;-31
2023/10/29 10:45:36;;;;;;;3.53;1.35;;;15.10;77.40;;;;;;5032421;28;20024;-31
2023/10/29 10:48:04;;;;;;;9.60;1.13;;;15.10;77.30;;;;;;5032641;28;20017;-31
2023/10/29 10:50:32;;;;;;;4.72;1.10;;;15.10;77.30;;;;;;5032412;28;20025;-32
2023/10/29 10:52:58;;;;;;;4.05;1.17;;;15.10;77.30;;;;;;5032176;28;20029;-29
2023/10/29 10:55:24;;;;;;;5.22;1.35;;;15.10;77.30;;;;;;5032159;28;20432;-31
2023/10/29 10:57:50;;;;;;;5.80;1.15;;;15.20;76.70;;;;;;5032174;28;20025;-29
2023/10/29 11:00:21;;;;;;;5.18;1.58;;;15.10;76.90;;;;;;5032337;28;20378;-39
2023/10/29 11:02:48;;;;;;;4.43;1.10;;;15.20;77.00;;;;;;5030593;28;20033;-35
2023/10/29 11:05:18;;;;;;;4.47;1.02;;;15.20;77.10;;;;;;5032153;28;20034;-32
2023/10/29 11:07:44;;;;;;;3.85;1.00;;;15.20;76.90;;;;;;5032228;28;20022;-33
2023/10/29 11:10:15;;;;;;;5.93;1.15;;;15.20;76.90;;;;;;5032182;28;20021;-30
2023/10/29 11:12:41;;;;;;;5.68;1.35;;;15.20;76.70;;;;;;5031993;28;20025;-32
2023/10/29 11:15:19;;;;;;;3.30;1.10;;;15.20;76.20;;;;;;5032068;28;20524;-28
2023/10/29 11:18:00;;;;;;;8.63;1.42;;;15.20;76.30;;;;;;5032189;28;20284;-31
2023/10/29 11:20:38;;;;;;;6.43;1.55;;;15.20;76.20;;;;;;5031872;28;20026;-34
2023/10/29 11:23:14;;;;;;;3.50;1.05;;;15.20;75.90;;;;;;5031865;28;20028;-41
2023/10/29 11:25:41;;;;;;;3.65;1.45;;;15.20;76.00;;;;;;5031649;28;20164;-31
2023/10/29 11:28:24;;;;;;;7.13;1.50;;;15.10;75.80;;;;;;5031913;28;20017;-30
2023/10/29 11:31:09;;;;;;;;;;;15.10;75.80;;;;;;5031559;28;20451;-31
2023/10/29 11:33:34;;;;;;;3.35;1.27;;;15.10;76.10;;;;;;5031793;28;19905;-33
2023/10/29 11:36:37;;;;;;;6.43;1.40;;;15.10;76.40;;;;;;5031779;28;20446;-30
2023/10/29 11:39:15;;;;;;;4.47;1.13;;;15.10;76.60;;;;;;5032115;28;20559;-30
2023/10/29 11:41:42;;;;;;;4.35;1.40;;;15.10;76.80;;;;;;5031472;28;20026;-33
2023/10/29 11:44:24;;;;;;;4.38;1.30;;;15.10;76.90;;;;;;5031394;28;20026;-30
2023/10/29 11:46:59;;;;;;;7.60;1.40;;;15.10;77.00;;;;;;5031427;28;20022;-29
2023/10/29 11:49:25;;;;;;;3.80;1.30;;;15.10;77.00;;;;;;5031416;28;20049;-30
2023/10/29 11:51:56;;;;;;;3.38;1.30;;;15.10;77.10;;;;;;5031275;28;20029;-33
2023/10/29 11:54:22;;;;;;;4.47;1.30;;;15.10;76.90;;;;;;5031457;28;20075;-32
2023/10/29 11:56:49;;;;;;;5.72;1.10;;;15.20;77.10;;;;;;5031284;28;20021;-34
2023/10/29 11:59:15;;;;;;;5.32;1.17;;;15.20;77.20;;;;;;5031088;28;20014;-32
2023/10/29 12:01:44;;;;;;;6.63;1.50;;;15.30;77.20;;;;;;5030568;28;20025;-34
2023/10/29 12:04:10;;;;;;;6.47;1.48;;;15.30;77.20;;;;;;5031159;28;20083;-30
2023/10/29 12:06:46;;;;;;;5.97;1.50;;;15.40;77.20;;;;;;5031519;28;20018;-30
2023/10/29 12:09:18;;;;;;;5.57;1.20;;;15.40;77.30;;;;;;5031303;28;20034;-34
2023/10/29 12:11:45;;;;;;;3.30;1.20;;;15.40;77.40;;;;;;5031202;28;20105;-34
2023/10/29 12:14:10;;;;;;;6.65;0.98;;;15.50;77.30;;;;;;5031439;28;20053;-31
2023/10/29 12:16:36;;;;;;;3.95;1.40;;;15.60;77.20;;;;;;5029596;28;20022;-34
2023/10/29 12:19:02;;;;;;;3.10;1.08;;;15.80;77.10;;;;;;5031229;28;20393;-33
2023/10/29 12:21:28;;;;;;;5.50;1.30;;;15.90;76.80;;;;;;5031345;28;20088;-31
2023/10/29 12:23:57;;;;;;;4.30;1.33;;;16.10;76.70;;;;;;5030873;28;20030;-35
2023/10/29 12:26:25;;;;;;;3.92;1.20;;;16.20;76.60;;;;;;5031124;28;20027;-32
2023/10/29 12:28:52;;;;;;;2.88;0.95;;;16.20;76.30;;;;;;5030907;28;20065;-29
2023/10/29 12:31:27;;;;;;;7.68;1.38;;;16.10;76.30;;;;;;5030953;28;20032;-30
2023/10/29 12:33:59;;;;;;;2.35;1.15;;;16.20;76.30;;;;;;5031047;28;20037;-29
2023/10/29 12:36:26;;;;;;;4.00;1.13;;;16.20;76.30;;;;;;5031030;28;20022;-31
2023/10/29 12:38:52;;;;;;;3.78;1.05;;;16.20;76.30;;;;;;5031121;28;20032;-34
2023/10/29 12:41:21;;;;;;;5.57;1.30;;;16.10;76.10;;;;;;5033056;28;20397;-29
2023/10/29 12:43:54;;;;;;;4.97;1.20;;;16.10;76.10;;;;;;5034739;28;20147;-32
2023/10/29 12:46:26;;;;;;;4.97;1.40;;;16.20;76.10;;;;;;5033509;28;20029;-32